Audrey — PD9331 — position and weather

sailwx.info

Track history (hours):
 
Tides and Currents Weather Stations Pressure Air Temp Water Temp Dewpoint Dewpoint Depression Visibility Wind Speed Wind Dir Waves Ship Positions

Audrey

Last reported at 2017-Mar-30 08:30 UTC. Time now 2017-Mar-30 08:53 UTC.
Position N 51°07' E 006°53'.

Length 85 m; draft 1.5 m.

Type: Wing in ground effect craft. MMSI: 244660106.

Date/timePositionNaut miles runAvg speedWind from/ knotsBaromVisibWave heightAir tempDewpointWater temp
2017-Mar-30 08:30N 51°07' E 006°53'3 3.6
2017-Mar-30 07:33N 51°09' E 006°48'5 4.8
2017-Mar-30 06:33N 51°13' E 006°44'3 3.1
2017-Mar-30 05:33N 51°16' E 006°43'5 4.8
2017-Mar-30 04:24N 51°21' E 006°40'4 4.8
2017-Mar-30 03:33N 51°24' E 006°45'4 4.1
2017-Mar-30 02:33N 51°28' E 006°43'0 0.0
2017-Mar-30 01:33N 51°28' E 006°43'0 0.0
2017-Mar-30 00:33N 51°28' E 006°43'0 0.0
2017-Mar-29 23:33N 51°28' E 006°43'0 0.0
2017-Mar-29 22:33N 51°28' E 006°43'0 0.0
2017-Mar-29 21:33N 51°28' E 006°43'0 0.0
2017-Mar-29 20:33N 51°28' E 006°43'0 0.0
2017-Mar-29 19:33N 51°28' E 006°43'2 2.0
2017-Mar-29 18:33N 51°30' E 006°43'5 5.0
2017-Mar-29 17:33N 51°35' E 006°40'4 4.3
2017-Mar-29 16:32N 51°38' E 006°35'5 4.8
2017-Mar-29 15:33N 51°40' E 006°29'5 5.4
2017-Mar-29 14:33N 51°45' E 006°25'6 6.1
2017-Mar-29 13:33N 51°49' E 006°17'7 6.6
2017-Mar-29 12:32N 51°51' E 006°07'6 5.7
2017-Mar-29 11:33N 51°51' E 005°58'6 5.8
2017-Mar-29 10:33N 51°52' E 005°49'7 7.3
2017-Mar-29 09:33N 51°54' E 005°37'8 6.8
2017-Mar-29 08:18N 51°50' E 005°24'4 5.5
2017-Mar-29 07:32N 51°49' E 005°18'7 7.1
2017-Mar-29 06:31N 51°49' E 005°06'7 7.8
2017-Mar-29 05:33N 51°49' E 004°54'9 9.3
2017-Mar-29 04:33N 51°49' E 004°39'10 9.7
2017-Mar-29 03:33N 51°51' E 004°24'7 6.9
2017-Mar-29 02:33N 51°54' E 004°14'0 0.3
2017-Mar-29 01:33N 51°54' E 004°14'0 0.0
2017-Mar-29 00:33N 51°54' E 004°14'0 0.0
2017-Mar-28 23:33N 51°54' E 004°14'0 0.0
2017-Mar-28 22:33N 51°54' E 004°14'0 0.0
2017-Mar-28 21:33N 51°54' E 004°14'0 0.0
2017-Mar-28 20:33N 51°54' E 004°14'0 0.0
2017-Mar-28 19:33N 51°54' E 004°14'0 0.3
2017-Mar-28 18:33N 51°54' E 004°14'0 0.0
2017-Mar-28 17:33N 51°54' E 004°14'0 0.3
2017-Mar-28 16:33N 51°54' E 004°14'0 0.0
2017-Mar-28 15:33N 51°54' E 004°14'4 3.5
2017-Mar-28 14:33N 51°52' E 004°18'6 6.2
2017-Mar-28 13:33N 51°54' E 004°28'1 1.4
2017-Mar-28 12:33N 51°55' E 004°30'0 0.0
2017-Mar-28 11:33N 51°55' E 004°30'0 0.0
2017-Mar-28 10:33N 51°55' E 004°30'0 0.0
2017-Mar-28 09:33N 51°55' E 004°30'0 0.0
2017-Mar-28 08:33N 51°55' E 004°30'0 0.0
2017-Mar-28 07:33N 51°55' E 004°30'0 0.0
2017-Mar-28 06:33N 51°55' E 004°30'0 0.0
2017-Mar-28 05:32N 51°55' E 004°30'0 0.0
2017-Mar-28 04:33N 51°55' E 004°30'0 0.0
2017-Mar-28 03:32N 51°55' E 004°30'0 0.0
2017-Mar-28 02:33N 51°55' E 004°30'0 0.0
2017-Mar-28 01:33N 51°55' E 004°30'0 0.0
2017-Mar-28 00:33N 51°55' E 004°30'0 0.0
2017-Mar-27 23:33N 51°55' E 004°30'0 0.0
2017-Mar-27 22:32N 51°55' E 004°30'0 0.0
2017-Mar-27 21:33N 51°55' E 004°30'0 0.0
2017-Mar-27 20:33N 51°55' E 004°30'0 0.0
2017-Mar-27 19:33N 51°55' E 004°30'0 0.0
2017-Mar-27 18:33N 51°55' E 004°30'0 0.0
2017-Mar-27 17:33N 51°55' E 004°30'0 0.0
2017-Mar-27 16:31N 51°55' E 004°30'0 0.0
2017-Mar-27 15:32N 51°55' E 004°30'0 0.0
2017-Mar-27 14:33N 51°55' E 004°30'0 0.0
2017-Mar-27 13:33N 51°55' E 004°30'0 0.0
2017-Mar-27 12:33N 51°55' E 004°30'0 0.0
2017-Mar-27 11:33N 51°55' E 004°30'0 0.0
2017-Mar-27 10:33N 51°55' E 004°30'0 0.0
2017-Mar-27 09:33N 51°55' E 004°30'0 0.0
2017-Mar-27 08:33N 51°55' E 004°30'0 0.0
2017-Mar-27 07:33N 51°55' E 004°30'0 0.0
2017-Mar-27 06:33N 51°55' E 004°30'0 0.0
2017-Mar-27 05:33N 51°55' E 004°30'0 0.0
2017-Mar-27 04:33N 51°55' E 004°30'0 0.0
2017-Mar-27 03:33N 51°55' E 004°30'0 0.0
2017-Mar-27 02:33N 51°55' E 004°30'0 0.0
2017-Mar-27 01:33N 51°55' E 004°30'0 0.0
2017-Mar-27 00:33N 51°55' E 004°30'0 0.0
2017-Mar-26 23:33N 51°55' E 004°30'0 0.0
2017-Mar-26 22:33N 51°55' E 004°30'0 0.0
2017-Mar-26 21:33N 51°55' E 004°30'0 0.0
2017-Mar-26 20:33N 51°55' E 004°30'0 0.0
2017-Mar-26 19:33N 51°55' E 004°30'0 0.0
2017-Mar-26 18:33N 51°55' E 004°30'0 0.0
2017-Mar-26 17:33N 51°55' E 004°30'0 0.0
2017-Mar-26 16:33N 51°55' E 004°30'0 0.0
2017-Mar-26 15:33N 51°55' E 004°30'0 0.0
2017-Mar-26 14:33N 51°55' E 004°30'0 0.0
2017-Mar-26 13:33N 51°55' E 004°30'0 0.0
2017-Mar-26 12:33N 51°55' E 004°30'0 0.0
2017-Mar-26 11:33N 51°55' E 004°30'0 0.0
2017-Mar-26 10:33N 51°55' E 004°30'0 0.1
2017-Mar-26 09:33N 51°55' E 004°30'0 0.4
2017-Mar-26 08:33N 51°55' E 004°29'0 0.0
2017-Mar-26 07:33N 51°55' E 004°29'0 0.0
2017-Mar-26 06:33N 51°55' E 004°29'0 0.0
2017-Mar-26 05:33N 51°55' E 004°29'0 0.0
2017-Mar-26 04:33N 51°55' E 004°29'0 0.0
2017-Mar-26 03:33N 51°55' E 004°29'0 0.0
2017-Mar-26 02:33N 51°55' E 004°29'0 0.0
2017-Mar-26 01:33N 51°55' E 004°29'0 0.0
2017-Mar-26 00:33N 51°55' E 004°29'0 0.0
2017-Mar-25 23:33N 51°55' E 004°29'0 0.0
2017-Mar-25 22:33N 51°55' E 004°29'0 0.0
2017-Mar-25 21:33N 51°55' E 004°29'0 0.0
2017-Mar-25 20:33N 51°55' E 004°29'0 0.0
2017-Mar-25 19:32N 51°55' E 004°29'0 0.0
2017-Mar-25 18:33N 51°55' E 004°29'0 0.0
2017-Mar-25 17:33N 51°55' E 004°29'0 0.0
2017-Mar-25 16:33N 51°55' E 004°29'0 0.0
2017-Mar-25 15:33N 51°55' E 004°29'0 0.0
2017-Mar-25 14:33N 51°55' E 004°29'0 0.0
2017-Mar-25 13:33N 51°55' E 004°29'0 0.0
2017-Mar-25 12:33N 51°55' E 004°29'0 0.0
2017-Mar-25 11:33N 51°55' E 004°29'0 0.0
2017-Mar-25 10:33N 51°55' E 004°29'0 0.0
2017-Mar-25 09:33N 51°55' E 004°29'0 0.0
2017-Mar-25 08:33N 51°55' E 004°29'0 0.0
2017-Mar-25 07:33N 51°55' E 004°29'0 0.0
2017-Mar-25 06:33N 51°55' E 004°29'0 0.0
2017-Mar-25 05:33N 51°55' E 004°29'0 0.0
2017-Mar-25 04:33N 51°55' E 004°29'0 0.0
2017-Mar-25 03:33N 51°55' E 004°29'0 0.0
2017-Mar-25 02:33N 51°55' E 004°29'0 0.0
2017-Mar-25 01:33N 51°55' E 004°29'0 0.0
2017-Mar-25 00:33N 51°55' E 004°29'0 0.0
2017-Mar-24 23:33N 51°55' E 004°29'0 0.0
2017-Mar-24 22:33N 51°55' E 004°29'0 0.0
2017-Mar-24 21:33N 51°55' E 004°29'0 0.0
2017-Mar-24 20:33N 51°55' E 004°29'0 0.0
2017-Mar-24 19:33N 51°55' E 004°29'0 0.0
2017-Mar-24 18:33N 51°55' E 004°29'0 0.0
2017-Mar-24 17:33N 51°55' E 004°29'0 0.0
2017-Mar-24 16:33N 51°55' E 004°29'0 0.0
2017-Mar-24 15:33N 51°55' E 004°29'0 0.0
2017-Mar-24 14:33N 51°55' E 004°29'0 0.0
2017-Mar-24 13:33N 51°55' E 004°29'0 0.0
2017-Mar-24 12:33N 51°55' E 004°29'0 0.0
2017-Mar-24 11:33N 51°55' E 004°29'0 0.0
2017-Mar-24 10:33N 51°55' E 004°29'0 0.0
2017-Mar-24 09:33N 51°55' E 004°29'0 0.0
2017-Mar-24 08:33N 51°55' E 004°29'0 0.0
2017-Mar-24 07:33N 51°55' E 004°29'0 0.0
2017-Mar-24 06:33N 51°55' E 004°29'0 0.0
2017-Mar-24 05:33N 51°55' E 004°29'0 0.0
2017-Mar-24 04:33N 51°55' E 004°29'0 0.0
2017-Mar-24 03:33N 51°55' E 004°29'0 0.0
2017-Mar-24 02:33N 51°55' E 004°29'0 0.0
2017-Mar-24 01:33N 51°55' E 004°29'0 0.0
2017-Mar-24 00:33N 51°55' E 004°29'0 0.0
2017-Mar-23 23:33N 51°55' E 004°29'0 0.0
2017-Mar-23 22:33N 51°55' E 004°29'0 0.0
2017-Mar-23 21:33N 51°55' E 004°29'0 0.0
2017-Mar-23 20:33N 51°55' E 004°29'0 0.0
2017-Mar-23 19:33N 51°55' E 004°29'0 0.0
2017-Mar-23 18:33N 51°55' E 004°29'0 0.0
2017-Mar-23 17:33N 51°55' E 004°29'4 4.1
2017-Mar-23 16:33N 51°54' E 004°36'5 5.2
2017-Mar-23 15:34N 51°49' E 004°40'0 0.0
2017-Mar-23 14:33N 51°49' E 004°40'1 0.6
2017-Mar-23 13:33N 51°49' E 004°39'8 7.8
2017-Mar-23 12:32N 51°42' E 004°32'35 1.9
2017-Mar-22 18:16N 51°19' E 003°50'7 9.2
2017-Mar-22 17:29N 51°12' E 003°48'7 7.5
2017-Mar-22 16:33N 51°06' E 003°42'2 1.5
2017-Mar-22 15:33N 51°05' E 003°40'4 4.4
2017-Mar-22 14:33N 51°03' E 003°34'13 0.9
2017-Mar-22 01:11N 50°54' E 003°19'0 0.0
2017-Mar-21 18:25N 50°54' E 003°19'1 0.5
2017-Mar-21 17:24N 50°55' E 003°19'1 0.7
2017-Mar-21 16:32N 50°54' E 003°19'0 0.0
2017-Mar-21 15:33N 50°54' E 003°19'0 0.0
2017-Mar-21 14:32N 50°54' E 003°19'0 0.0
2017-Mar-21 12:31N 50°54' E 003°19'0 0.0
2017-Mar-21 11:32N 50°54' E 003°19'0 0.0
2017-Mar-21 10:31N 50°54' E 003°19'0 0.0
2017-Mar-21 09:32N 50°54' E 003°19'0 0.0
2017-Mar-21 08:04N 50°54' E 003°19'0 0.0
2017-Mar-21 07:32N 50°54' E 003°19'0 0.0
2017-Mar-21 06:32N 50°54' E 003°19'0 0.0
2017-Mar-21 05:24N 50°54' E 003°19'0 0.0
2017-Mar-20 16:26N 50°54' E 003°19'4 0.5
2017-Mar-20 09:33N 50°55' E 003°25'3 3.4
2017-Mar-20 08:33N 50°58' E 003°28'  
Track history (hours):
 
Tides and Currents Weather Stations Pressure Air Temp Water Temp Dewpoint Dewpoint Depression Visibility Wind Speed Wind Dir Waves Ship Positions

Audrey

Last reported at 2017-Mar-30 08:30 UTC. Time now 2017-Mar-30 08:53 UTC.
Position N 51°07' E 006°53'.

Length 85 m; draft 1.5 m.

Type: Wing in ground effect craft. MMSI: 244660106.

Date/timePositionNaut miles runAvg speedWind from/ knotsBaromVisibWave heightAir tempDewpointWater temp
2017-Mar-30 08:30N 51°07' E 006°53'3 3.6
2017-Mar-30 07:33N 51°09' E 006°48'5 4.8
2017-Mar-30 06:33N 51°13' E 006°44'3 3.1
2017-Mar-30 05:33N 51°16' E 006°43'5 4.8
2017-Mar-30 04:24N 51°21' E 006°40'4 4.8
2017-Mar-30 03:33N 51°24' E 006°45'4 4.1
2017-Mar-30 02:33N 51°28' E 006°43'0 0.0
2017-Mar-30 01:33N 51°28' E 006°43'0 0.0
2017-Mar-30 00:33N 51°28' E 006°43'0 0.0
2017-Mar-29 23:33N 51°28' E 006°43'0 0.0
2017-Mar-29 22:33N 51°28' E 006°43'0 0.0
2017-Mar-29 21:33N 51°28' E 006°43'0 0.0
2017-Mar-29 20:33N 51°28' E 006°43'0 0.0
2017-Mar-29 19:33N 51°28' E 006°43'2 2.0
2017-Mar-29 18:33N 51°30' E 006°43'5 5.0
2017-Mar-29 17:33N 51°35' E 006°40'4 4.3
2017-Mar-29 16:32N 51°38' E 006°35'5 4.8
2017-Mar-29 15:33N 51°40' E 006°29'5 5.4
2017-Mar-29 14:33N 51°45' E 006°25'6 6.1
2017-Mar-29 13:33N 51°49' E 006°17'7 6.6
2017-Mar-29 12:32N 51°51' E 006°07'6 5.7
2017-Mar-29 11:33N 51°51' E 005°58'6 5.8
2017-Mar-29 10:33N 51°52' E 005°49'7 7.3
2017-Mar-29 09:33N 51°54' E 005°37'8 6.8
2017-Mar-29 08:18N 51°50' E 005°24'4 5.5
2017-Mar-29 07:32N 51°49' E 005°18'7 7.1
2017-Mar-29 06:31N 51°49' E 005°06'7 7.8
2017-Mar-29 05:33N 51°49' E 004°54'9 9.3
2017-Mar-29 04:33N 51°49' E 004°39'10 9.7
2017-Mar-29 03:33N 51°51' E 004°24'7 6.9
2017-Mar-29 02:33N 51°54' E 004°14'0 0.3
2017-Mar-29 01:33N 51°54' E 004°14'0 0.0
2017-Mar-29 00:33N 51°54' E 004°14'0 0.0
2017-Mar-28 23:33N 51°54' E 004°14'0 0.0
2017-Mar-28 22:33N 51°54' E 004°14'0 0.0
2017-Mar-28 21:33N 51°54' E 004°14'0 0.0
2017-Mar-28 20:33N 51°54' E 004°14'0 0.0
2017-Mar-28 19:33N 51°54' E 004°14'0 0.3
2017-Mar-28 18:33N 51°54' E 004°14'0 0.0
2017-Mar-28 17:33N 51°54' E 004°14'0 0.3
2017-Mar-28 16:33N 51°54' E 004°14'0 0.0
2017-Mar-28 15:33N 51°54' E 004°14'4 3.5
2017-Mar-28 14:33N 51°52' E 004°18'6 6.2
2017-Mar-28 13:33N 51°54' E 004°28'1 1.4
2017-Mar-28 12:33N 51°55' E 004°30'0 0.0
2017-Mar-28 11:33N 51°55' E 004°30'0 0.0
2017-Mar-28 10:33N 51°55' E 004°30'0 0.0
2017-Mar-28 09:33N 51°55' E 004°30'0 0.0
2017-Mar-28 08:33N 51°55' E 004°30'0 0.0
2017-Mar-28 07:33N 51°55' E 004°30'0 0.0
2017-Mar-28 06:33N 51°55' E 004°30'0 0.0
2017-Mar-28 05:32N 51°55' E 004°30'0 0.0
2017-Mar-28 04:33N 51°55' E 004°30'0 0.0
2017-Mar-28 03:32N 51°55' E 004°30'0 0.0
2017-Mar-28 02:33N 51°55' E 004°30'0 0.0
2017-Mar-28 01:33N 51°55' E 004°30'0 0.0
2017-Mar-28 00:33N 51°55' E 004°30'0 0.0
2017-Mar-27 23:33N 51°55' E 004°30'0 0.0
2017-Mar-27 22:32N 51°55' E 004°30'0 0.0
2017-Mar-27 21:33N 51°55' E 004°30'0 0.0
2017-Mar-27 20:33N 51°55' E 004°30'0 0.0
2017-Mar-27 19:33N 51°55' E 004°30'0 0.0
2017-Mar-27 18:33N 51°55' E 004°30'0 0.0
2017-Mar-27 17:33N 51°55' E 004°30'0 0.0
2017-Mar-27 16:31N 51°55' E 004°30'0 0.0
2017-Mar-27 15:32N 51°55' E 004°30'0 0.0
2017-Mar-27 14:33N 51°55' E 004°30'0 0.0
2017-Mar-27 13:33N 51°55' E 004°30'0 0.0
2017-Mar-27 12:33N 51°55' E 004°30'0 0.0
2017-Mar-27 11:33N 51°55' E 004°30'0 0.0
2017-Mar-27 10:33N 51°55' E 004°30'0 0.0
2017-Mar-27 09:33N 51°55' E 004°30'0 0.0
2017-Mar-27 08:33N 51°55' E 004°30'0 0.0
2017-Mar-27 07:33N 51°55' E 004°30'0 0.0
2017-Mar-27 06:33N 51°55' E 004°30'0 0.0
2017-Mar-27 05:33N 51°55' E 004°30'0 0.0
2017-Mar-27 04:33N 51°55' E 004°30'0 0.0
2017-Mar-27 03:33N 51°55' E 004°30'0 0.0
2017-Mar-27 02:33N 51°55' E 004°30'0 0.0
2017-Mar-27 01:33N 51°55' E 004°30'0 0.0
2017-Mar-27 00:33N 51°55' E 004°30'0 0.0
2017-Mar-26 23:33N 51°55' E 004°30'0 0.0
2017-Mar-26 22:33N 51°55' E 004°30'0 0.0
2017-Mar-26 21:33N 51°55' E 004°30'0 0.0
2017-Mar-26 20:33N 51°55' E 004°30'0 0.0
2017-Mar-26 19:33N 51°55' E 004°30'0 0.0
2017-Mar-26 18:33N 51°55' E 004°30'0 0.0
2017-Mar-26 17:33N 51°55' E 004°30'0 0.0
2017-Mar-26 16:33N 51°55' E 004°30'0 0.0
2017-Mar-26 15:33N 51°55' E 004°30'0 0.0
2017-Mar-26 14:33N 51°55' E 004°30'0 0.0
2017-Mar-26 13:33N 51°55' E 004°30'0 0.0
2017-Mar-26 12:33N 51°55' E 004°30'0 0.0
2017-Mar-26 11:33N 51°55' E 004°30'0 0.0
2017-Mar-26 10:33N 51°55' E 004°30'0 0.1
2017-Mar-26 09:33N 51°55' E 004°30'0 0.4
2017-Mar-26 08:33N 51°55' E 004°29'0 0.0
2017-Mar-26 07:33N 51°55' E 004°29'0 0.0
2017-Mar-26 06:33N 51°55' E 004°29'0 0.0
2017-Mar-26 05:33N 51°55' E 004°29'0 0.0
2017-Mar-26 04:33N 51°55' E 004°29'0 0.0
2017-Mar-26 03:33N 51°55' E 004°29'0 0.0
2017-Mar-26 02:33N 51°55' E 004°29'0 0.0
2017-Mar-26 01:33N 51°55' E 004°29'0 0.0
2017-Mar-26 00:33N 51°55' E 004°29'0 0.0
2017-Mar-25 23:33N 51°55' E 004°29'0 0.0
2017-Mar-25 22:33N 51°55' E 004°29'0 0.0
2017-Mar-25 21:33N 51°55' E 004°29'0 0.0
2017-Mar-25 20:33N 51°55' E 004°29'0 0.0
2017-Mar-25 19:32N 51°55' E 004°29'0 0.0
2017-Mar-25 18:33N 51°55' E 004°29'0 0.0
2017-Mar-25 17:33N 51°55' E 004°29'0 0.0
2017-Mar-25 16:33N 51°55' E 004°29'0 0.0
2017-Mar-25 15:33N 51°55' E 004°29'0 0.0
2017-Mar-25 14:33N 51°55' E 004°29'0 0.0
2017-Mar-25 13:33N 51°55' E 004°29'0 0.0
2017-Mar-25 12:33N 51°55' E 004°29'0 0.0
2017-Mar-25 11:33N 51°55' E 004°29'0 0.0
2017-Mar-25 10:33N 51°55' E 004°29'0 0.0
2017-Mar-25 09:33N 51°55' E 004°29'0 0.0
2017-Mar-25 08:33N 51°55' E 004°29'0 0.0
2017-Mar-25 07:33N 51°55' E 004°29'0 0.0
2017-Mar-25 06:33N 51°55' E 004°29'0 0.0
2017-Mar-25 05:33N 51°55' E 004°29'0 0.0
2017-Mar-25 04:33N 51°55' E 004°29'0 0.0
2017-Mar-25 03:33N 51°55' E 004°29'0 0.0
2017-Mar-25 02:33N 51°55' E 004°29'0 0.0
2017-Mar-25 01:33N 51°55' E 004°29'0 0.0
2017-Mar-25 00:33N 51°55' E 004°29'0 0.0
2017-Mar-24 23:33N 51°55' E 004°29'0 0.0
2017-Mar-24 22:33N 51°55' E 004°29'0 0.0
2017-Mar-24 21:33N 51°55' E 004°29'0 0.0
2017-Mar-24 20:33N 51°55' E 004°29'0 0.0
2017-Mar-24 19:33N 51°55' E 004°29'0 0.0
2017-Mar-24 18:33N 51°55' E 004°29'0 0.0
2017-Mar-24 17:33N 51°55' E 004°29'0 0.0
2017-Mar-24 16:33N 51°55' E 004°29'0 0.0
2017-Mar-24 15:33N 51°55' E 004°29'0 0.0
2017-Mar-24 14:33N 51°55' E 004°29'0 0.0
2017-Mar-24 13:33N 51°55' E 004°29'0 0.0
2017-Mar-24 12:33N 51°55' E 004°29'0 0.0
2017-Mar-24 11:33N 51°55' E 004°29'0 0.0
2017-Mar-24 10:33N 51°55' E 004°29'0 0.0
2017-Mar-24 09:33N 51°55' E 004°29'0 0.0
2017-Mar-24 08:33N 51°55' E 004°29'0 0.0
2017-Mar-24 07:33N 51°55' E 004°29'0 0.0
2017-Mar-24 06:33N 51°55' E 004°29'0 0.0
2017-Mar-24 05:33N 51°55' E 004°29'0 0.0
2017-Mar-24 04:33N 51°55' E 004°29'0 0.0
2017-Mar-24 03:33N 51°55' E 004°29'0 0.0
2017-Mar-24 02:33N 51°55' E 004°29'0 0.0
2017-Mar-24 01:33N 51°55' E 004°29'0 0.0
2017-Mar-24 00:33N 51°55' E 004°29'0 0.0
2017-Mar-23 23:33N 51°55' E 004°29'0 0.0
2017-Mar-23 22:33N 51°55' E 004°29'0 0.0
2017-Mar-23 21:33N 51°55' E 004°29'0 0.0
2017-Mar-23 20:33N 51°55' E 004°29'0 0.0
2017-Mar-23 19:33N 51°55' E 004°29'0 0.0
2017-Mar-23 18:33N 51°55' E 004°29'0 0.0
2017-Mar-23 17:33N 51°55' E 004°29'4 4.1
2017-Mar-23 16:33N 51°54' E 004°36'5 5.2
2017-Mar-23 15:34N 51°49' E 004°40'0 0.0
2017-Mar-23 14:33N 51°49' E 004°40'1 0.6
2017-Mar-23 13:33N 51°49' E 004°39'8 7.8
2017-Mar-23 12:32N 51°42' E 004°32'35 1.9
2017-Mar-22 18:16N 51°19' E 003°50'7 9.2
2017-Mar-22 17:29N 51°12' E 003°48'7 7.5
2017-Mar-22 16:33N 51°06' E 003°42'2 1.5
2017-Mar-22 15:33N 51°05' E 003°40'4 4.4
2017-Mar-22 14:33N 51°03' E 003°34'13 0.9
2017-Mar-22 01:11N 50°54' E 003°19'0 0.0
2017-Mar-21 18:25N 50°54' E 003°19'1 0.5
2017-Mar-21 17:24N 50°55' E 003°19'1 0.7
2017-Mar-21 16:32N 50°54' E 003°19'0 0.0
2017-Mar-21 15:33N 50°54' E 003°19'0 0.0
2017-Mar-21 14:32N 50°54' E 003°19'0 0.0
2017-Mar-21 12:31N 50°54' E 003°19'0 0.0
2017-Mar-21 11:32N 50°54' E 003°19'0 0.0
2017-Mar-21 10:31N 50°54' E 003°19'0 0.0
2017-Mar-21 09:32N 50°54' E 003°19'0 0.0
2017-Mar-21 08:04N 50°54' E 003°19'0 0.0
2017-Mar-21 07:32N 50°54' E 003°19'0 0.0
2017-Mar-21 06:32N 50°54' E 003°19'0 0.0
2017-Mar-21 05:24N 50°54' E 003°19'0 0.0
2017-Mar-20 16:26N 50°54' E 003°19'4 0.5
2017-Mar-20 09:33N 50°55' E 003°25'3 3.4
2017-Mar-20 08:33N 50°58' E 003°28'  

Dump ship's entire track history